This is the latest recevied weather packets stored in our database for station/object OE-11208. If no packets are shown the sender has not sent any weather packets the latest 10 day(s).
| Time | Temp. | Humidity | Pressure | Rain* | Wind** | Luminosity | Snow |
|---|---|---|---|---|---|---|---|
| 1788024322 | 17.78° C | 75% | 1015.4 hPa | 0 mm | - | 27 W/m² | - |
| 1788023495 | 17.78° C | 72% | 1015.4 hPa | 0 mm | - | 34 W/m² | - |
| 1788023121 | 18.89° C | 69% | 1015.1 hPa | 0 mm | - | 40 W/m² | - |
| 1788022522 | 18.89° C | 70% | 1014.9 hPa | 0 mm | - | 47 W/m² | - |
| 1788021695 | 20° C | 73% | 1014.6 hPa | 0 mm | - | 94 W/m² | - |
| 1788021322 | 20° C | 67% | 1014.5 hPa | 0 mm | - | 175 W/m² | - |
| 1788020721 | 20° C | 65% | 1014.3 hPa | 0 mm | - | 128 W/m² | - |
| 1788019895 | 20.56° C | 52% | 1014.3 hPa | 0 mm | - | 168 W/m² | - |
| 1788019522 | 21.11° C | 52% | 1014 hPa | 0 mm | - | 208 W/m² | - |
| 1788018921 | 21.11° C | 51% | 1013.9 hPa | 0 mm | - | 296 W/m² | - |
| 1788018095 | 21.11° C | 46% | 1013.9 hPa | 0 mm | - | 269 W/m² | - |
| 1788017722 | 21.67° C | 52% | 1013.8 hPa | 0 mm | - | 323 W/m² | - |
| 1788017122 | 21.67° C | 54% | 1013.8 hPa | 0 mm | - | 430 W/m² | - |
| 1788016295 | 21.67° C | 53% | 1014.2 hPa | 0 mm | - | 262 W/m² | - |
| 1788015922 | 21.67° C | 55% | 1014.2 hPa | 0 mm | - | 215 W/m² | - |
| 1788015322 | 21.11° C | 52% | 1014.4 hPa | 0 mm | - | 188 W/m² | - |
| 1788014495 | 21.11° C | 57% | 1014.4 hPa | 0 mm | - | 195 W/m² | - |
| 1788014122 | 21.67° C | 50% | 1014.3 hPa | 0 mm | - | 235 W/m² | - |
| 1788013521 | 21.67° C | 56% | 1014.3 hPa | 0 mm | - | 235 W/m² | - |
| 1788012695 | 21.11° C | 54% | 1014.4 hPa | 0 mm | - | 208 W/m² | - |
| 1788012322 | 21.11° C | 54% | 1014.6 hPa | 0 mm | - | 242 W/m² | - |
| 1788011722 | 21.67° C | 52% | 1014.5 hPa | 0 mm | - | 289 W/m² | - |
| 1788010895 | 21.67° C | 50% | 1014.6 hPa | 0 mm | - | 343 W/m² | - |
| 1788010522 | 21.67° C | 56% | 1014.6 hPa | 0 mm | - | 356 W/m² | - |
| 1788009921 | 21.67° C | 55% | 1014.7 hPa | 0 mm | - | 336 W/m² | - |
* Rain latest hour (hover to see other rain measurements)
** Current wind speed in m/s (hover to see current wind gust speed)